Sidney, Texas
Current Conditions -  °F | °C
As of 11:15 PM on Friday 24 Oct 2014 (Local Time) from KMKN Reporting Station
Clear Clear  
Wind Chill: 70°   Ceiling: Unl
Heat Index: 70°   Visibility: 10mi
Dew Point: 60°   Wind: 10mph
Humidity: 70%   Direction: 190°S
Pressure: 30.14"   Gusts: NA
Location:  31.94°N, 98.74°W
Report Text: KMKN 250415Z AUTO 19009KT 10SM CLR 21/16 A3014 RMK AO2 T02130156
Loading
Personal Weather Stations






























Interactive Weather Map
Tropical Storm Tracking
New forecast layout! Learn more

10-Day Weather Forecast

Advertisements
Track Severe Weather on mobile